カーナーク/チューレ空軍基地 の空港の天気 - METARとTAF

チューレ空軍基地 ( BGTL / THU ) - グリーンランド カーナーク
飛行場実況気象(Metar)
観測時間04/21 13:56 ADT (04/21 16:56 UTC)
風向・風速静穏 0m/s
視程10km以上
天気現象
なし
気温-13.3℃
湿度84%
気圧999.7hPa
METARBGTL 211656Z AUTO 00000KT 9999 CLR M13/M15 A2955 RMK AO2 SLP997 T11331155 TSNO $
過去の天気等 Google飛行場航空写真 Wunderground天気予報

過去48時間のMETAR

飛行場予報(TAF)
データがありません